createdAt,value
2022-09-20T00:00:40.795Z,13
2022-09-20T00:03:40.827Z,10
2022-09-20T00:06:40.815Z,12
2022-09-20T00:09:40.809Z,13
2022-09-20T00:12:40.827Z,11
2022-09-20T00:15:40.824Z,11
2022-09-20T00:18:40.832Z,10
2022-09-20T00:21:40.836Z,11
2022-09-20T00:24:40.844Z,12
2022-09-20T00:27:40.842Z,13
2022-09-20T00:30:40.868Z,14
2022-09-20T00:33:40.857Z,11
2022-09-20T00:36:40.892Z,12
2022-09-20T00:39:40.878Z,11
2022-09-20T00:42:40.878Z,15
2022-09-20T00:45:40.883Z,11
2022-09-20T00:48:40.884Z,13
2022-09-20T00:51:40.886Z,13
2022-09-20T00:54:40.898Z,13
2022-09-20T00:57:40.917Z,11
2022-09-20T01:00:40.920Z,11
2022-09-20T01:06:40.950Z,13
2022-09-20T01:09:40.921Z,15
2022-09-20T01:12:40.929Z,10
2022-09-20T01:15:40.937Z,14
2022-09-20T01:18:40.948Z,17
2022-09-20T01:21:40.946Z,19
2022-09-20T01:24:40.946Z,15
2022-09-20T01:27:40.947Z,8
2022-09-20T01:30:40.950Z,11
2022-09-20T01:33:40.955Z,10
2022-09-20T01:36:40.960Z,11
2022-09-20T01:39:40.977Z,13
2022-09-20T01:42:40.982Z,10
2022-09-20T01:45:40.978Z,13
2022-09-20T01:48:40.983Z,9
2022-09-20T01:51:40.984Z,10
2022-09-20T01:54:40.987Z,13
2022-09-20T01:57:40.993Z,9
2022-09-20T02:00:41.000Z,10
2022-09-20T02:03:41.012Z,10
2022-09-20T02:06:41.019Z,10
2022-09-20T02:09:41.025Z,7
2022-09-20T02:12:41.036Z,10
2022-09-20T02:15:41.016Z,13
2022-09-20T02:18:41.033Z,7
2022-09-20T02:21:41.045Z,8
2022-09-20T02:24:41.043Z,9
2022-09-20T02:27:41.049Z,13
2022-09-20T02:30:41.045Z,9
2022-09-20T02:33:41.059Z,9
2022-09-20T02:36:41.067Z,10
2022-09-20T02:39:41.062Z,10
2022-09-20T02:42:41.073Z,10
2022-09-20T02:45:41.065Z,13
2022-09-20T02:48:41.074Z,8
2022-09-20T02:51:41.094Z,9
2022-09-20T02:54:41.090Z,12
2022-09-20T02:57:41.099Z,9
2022-09-20T03:00:41.107Z,9
2022-09-20T03:03:41.110Z,9
2022-09-20T03:06:41.120Z,9
2022-09-20T03:09:41.134Z,9
2022-09-20T03:15:41.127Z,8
2022-09-20T03:18:41.121Z,12
2022-09-20T03:21:41.151Z,8
2022-09-20T03:24:41.144Z,12
2022-09-20T03:27:41.139Z,10
2022-09-20T03:30:41.161Z,8
2022-09-20T03:33:41.149Z,7
2022-09-20T03:36:41.151Z,9
2022-09-20T03:39:41.169Z,8
2022-09-20T03:42:41.166Z,12
2022-09-20T03:45:41.183Z,12
2022-09-20T03:48:41.200Z,8
2022-09-20T03:51:41.203Z,7
2022-09-20T03:54:41.211Z,8
2022-09-20T03:57:41.199Z,9
2022-09-20T04:00:41.204Z,7
2022-09-20T04:03:41.214Z,6
2022-09-20T04:06:41.231Z,8
2022-09-20T04:09:41.231Z,11
2022-09-20T04:12:41.225Z,8
2022-09-20T04:15:41.245Z,6
2022-09-20T04:18:41.242Z,7
2022-09-20T04:21:41.254Z,8
2022-09-20T04:24:41.260Z,11
2022-09-20T04:27:41.267Z,8
2022-09-20T04:30:41.250Z,7
2022-09-20T04:33:41.256Z,11
2022-09-20T04:36:41.278Z,7
2022-09-20T04:39:41.274Z,9
2022-09-20T04:42:41.270Z,9
2022-09-20T04:45:41.287Z,12
2022-09-20T04:48:41.302Z,12
2022-09-20T04:51:41.307Z,8
2022-09-20T04:54:41.306Z,8
2022-09-20T04:57:41.311Z,9
2022-09-20T05:00:41.300Z,7
2022-09-20T05:03:41.309Z,11
2022-09-20T05:06:41.317Z,10
2022-09-20T05:09:41.337Z,8
2022-09-20T05:12:41.318Z,9
2022-09-20T05:15:41.337Z,9
2022-09-20T05:18:41.350Z,6
2022-09-20T05:21:41.347Z,8
2022-09-20T05:24:41.339Z,6
2022-09-20T05:27:41.358Z,7
2022-09-20T05:30:41.374Z,8
2022-09-20T05:33:41.364Z,7
2022-09-20T05:36:41.367Z,9
2022-09-20T05:39:41.437Z,8
2022-09-20T05:42:41.374Z,13
2022-09-20T05:45:41.386Z,9
2022-09-20T05:48:41.394Z,10
2022-09-20T05:51:41.389Z,7
2022-09-20T05:54:41.411Z,9
2022-09-20T05:57:41.410Z,5
2022-09-20T06:00:41.443Z,7
2022-09-20T06:03:41.424Z,8
2022-09-20T06:06:41.435Z,8
2022-09-20T06:09:41.461Z,9
2022-09-20T06:12:41.587Z,7
2022-09-20T06:15:41.506Z,10
2022-09-20T06:18:41.482Z,12
2022-09-20T06:21:41.458Z,7
2022-09-20T06:24:41.466Z,10
2022-09-20T06:27:41.541Z,5
2022-09-20T06:30:41.485Z,6
2022-09-20T06:33:41.468Z,9
2022-09-20T06:36:41.480Z,8
2022-09-20T06:39:41.479Z,9
2022-09-20T06:42:41.487Z,9
2022-09-20T06:45:41.714Z,8
2022-09-20T06:48:41.504Z,6
2022-09-20T06:51:41.526Z,8
2022-09-20T06:54:41.514Z,8
2022-09-20T06:57:41.519Z,9
2022-09-20T07:00:41.523Z,8
2022-09-20T07:03:41.519Z,6
2022-09-20T07:06:41.567Z,9
2022-09-20T07:09:41.558Z,7
2022-09-20T07:12:41.627Z,8
2022-09-20T07:15:41.545Z,7
2022-09-20T07:18:41.553Z,7
2022-09-20T07:21:41.578Z,7
2022-09-20T07:24:41.574Z,6
2022-09-20T07:27:41.576Z,7
2022-09-20T07:30:41.577Z,10
2022-09-20T07:33:41.574Z,8
2022-09-20T07:36:41.594Z,8
2022-09-20T07:39:41.606Z,11
2022-09-20T07:42:41.663Z,9
2022-09-20T07:45:41.617Z,10
2022-09-20T07:48:41.702Z,11
2022-09-20T07:51:41.625Z,9
2022-09-20T07:54:41.630Z,12
2022-09-20T07:57:41.644Z,7
2022-09-20T08:00:41.641Z,13
2022-09-20T08:03:41.658Z,10
2022-09-20T08:06:41.661Z,11
2022-09-20T08:09:41.679Z,8
2022-09-20T08:12:41.671Z,7
2022-09-20T08:15:41.694Z,11
2022-09-20T08:18:41.702Z,9
2022-09-20T08:21:41.683Z,11
2022-09-20T08:24:41.720Z,9
2022-09-20T08:27:41.722Z,8
2022-09-20T08:30:41.721Z,11
2022-09-20T08:33:41.727Z,11
2022-09-20T08:36:41.726Z,10
2022-09-20T08:39:41.728Z,8
2022-09-20T08:42:41.750Z,8
2022-09-20T08:45:41.747Z,9
2022-09-20T08:48:41.747Z,9
2022-09-20T08:51:41.757Z,8
2022-09-20T08:54:41.760Z,8
2022-09-20T08:57:41.760Z,7
2022-09-20T09:00:41.753Z,9
2022-09-20T09:03:41.759Z,10
2022-09-20T09:06:41.779Z,6
2022-09-20T09:09:41.763Z,9
2022-09-20T09:12:41.775Z,7
2022-09-20T09:15:41.779Z,7
2022-09-20T09:18:41.793Z,8
2022-09-20T09:21:41.791Z,8
2022-09-20T09:24:41.821Z,7
2022-09-20T09:27:41.815Z,8
2022-09-20T09:30:41.825Z,9
2022-09-20T09:33:41.823Z,8
2022-09-20T09:36:41.823Z,9
2022-09-20T09:39:41.834Z,8
2022-09-20T09:42:41.835Z,9
2022-09-20T09:45:41.900Z,6
2022-09-20T09:48:41.852Z,7
2022-09-20T09:51:41.901Z,8
2022-09-20T09:54:42.011Z,8
2022-09-20T09:57:41.894Z,5
2022-09-20T10:00:42.047Z,7
2022-09-20T10:03:41.931Z,8
2022-09-20T10:06:41.885Z,7
2022-09-20T10:09:41.897Z,8
2022-09-20T10:12:41.907Z,6
2022-09-20T10:15:41.914Z,7
2022-09-20T10:18:41.920Z,6
2022-09-20T10:21:41.928Z,8
2022-09-20T10:24:41.929Z,5
2022-09-20T10:27:41.931Z,5
2022-09-20T10:30:41.934Z,6
2022-09-20T10:33:41.981Z,6
2022-09-20T10:36:41.964Z,3
2022-09-20T10:39:41.955Z,4
2022-09-20T10:42:41.960Z,2
2022-09-20T10:45:41.979Z,4
2022-09-20T10:48:41.954Z,2
2022-09-20T10:51:41.951Z,3
2022-09-20T10:54:42.022Z,5
2022-09-20T10:57:41.990Z,3
2022-09-20T11:00:42.000Z,4
2022-09-20T11:03:42.025Z,3
2022-09-20T11:06:42.004Z,3
2022-09-20T11:09:42.013Z,5
2022-09-20T11:12:42.014Z,3
2022-09-20T11:15:42.031Z,3
2022-09-20T11:18:42.036Z,6
2022-09-20T11:21:42.016Z,4
2022-09-20T11:24:42.029Z,3
2022-09-20T11:27:42.046Z,3
2022-09-20T11:30:42.048Z,4
2022-09-20T11:33:42.059Z,4
2022-09-20T11:36:42.059Z,3
2022-09-20T11:39:42.070Z,5
2022-09-20T11:42:42.067Z,4
2022-09-20T11:45:42.050Z,4
2022-09-20T11:48:42.092Z,3
2022-09-20T11:51:42.081Z,1
2022-09-20T11:54:42.087Z,2
2022-09-20T11:57:42.076Z,3
2022-09-20T12:00:42.082Z,4
2022-09-20T12:03:42.155Z,3
2022-09-20T12:06:42.130Z,4
2022-09-20T12:09:42.102Z,2
2022-09-20T12:12:42.122Z,5
2022-09-20T12:15:42.102Z,2
2022-09-20T12:18:42.149Z,3
2022-09-20T12:21:42.129Z,2
2022-09-20T12:24:42.133Z,3
2022-09-20T12:27:42.142Z,1
2022-09-20T12:30:42.127Z,3
2022-09-20T12:33:42.217Z,5
2022-09-20T12:36:42.138Z,4
2022-09-20T12:39:42.167Z,3
2022-09-20T12:42:42.155Z,3
2022-09-20T12:45:42.187Z,4
2022-09-20T12:48:42.170Z,4
2022-09-20T12:51:42.155Z,3
2022-09-20T12:54:42.173Z,2
2022-09-20T12:57:42.169Z,2
2022-09-20T13:00:42.174Z,4
2022-09-20T13:03:42.185Z,2
2022-09-20T13:06:42.216Z,3
2022-09-20T13:09:42.191Z,4
2022-09-20T13:12:42.203Z,3
2022-09-20T13:15:42.269Z,4
2022-09-20T13:18:42.203Z,5
2022-09-20T13:21:42.208Z,2
2022-09-20T13:24:42.260Z,4
2022-09-20T13:27:42.212Z,3
2022-09-20T13:30:42.219Z,3
2022-09-20T13:33:42.232Z,4
2022-09-20T13:36:42.226Z,5
2022-09-20T13:39:42.241Z,2
2022-09-20T13:42:42.234Z,5
2022-09-20T13:45:42.255Z,3
2022-09-20T13:48:42.252Z,4
2022-09-20T13:51:42.259Z,3
2022-09-20T13:54:42.304Z,4
2022-09-20T13:57:42.318Z,2
2022-09-20T14:00:42.269Z,3
2022-09-20T14:03:42.264Z,4
2022-09-20T14:06:42.282Z,2
2022-09-20T14:09:42.274Z,5
2022-09-20T14:12:42.294Z,2
2022-09-20T14:15:42.288Z,3
2022-09-20T14:18:42.290Z,5
2022-09-20T14:21:42.394Z,4
2022-09-20T14:24:42.306Z,3
2022-09-20T14:27:42.314Z,1
2022-09-20T14:30:42.326Z,3
2022-09-20T14:33:42.319Z,2
2022-09-20T14:36:42.321Z,5
2022-09-20T14:39:42.330Z,3
2022-09-20T14:42:42.319Z,3
2022-09-20T14:45:42.339Z,3
2022-09-20T14:48:42.359Z,3
2022-09-20T14:51:42.353Z,5
2022-09-20T14:54:42.336Z,2
2022-09-20T14:57:42.362Z,4
2022-09-20T15:00:42.369Z,2
2022-09-20T15:03:42.361Z,2
2022-09-20T15:06:42.388Z,2
2022-09-20T15:09:42.364Z,2
2022-09-20T15:12:42.400Z,4
2022-09-20T15:15:42.376Z,3
2022-09-20T15:18:42.400Z,4
2022-09-20T15:21:42.406Z,2
2022-09-20T15:24:42.395Z,3
2022-09-20T15:27:42.420Z,5
2022-09-20T15:30:42.420Z,4
2022-09-20T15:33:42.430Z,3
2022-09-20T15:36:42.417Z,3
2022-09-20T15:39:42.459Z,3
2022-09-20T15:42:42.441Z,4
2022-09-20T15:45:42.443Z,3
2022-09-20T15:48:42.472Z,3
2022-09-20T15:51:42.456Z,4
2022-09-20T15:54:42.490Z,4
2022-09-20T15:57:42.462Z,3
2022-09-20T16:00:42.464Z,4
2022-09-20T16:03:42.500Z,4
2022-09-20T16:06:42.456Z,5
2022-09-20T16:09:42.473Z,5
2022-09-20T16:12:42.486Z,6
2022-09-20T16:15:42.503Z,6
2022-09-20T16:18:42.502Z,3
2022-09-20T16:21:42.510Z,4
2022-09-20T16:24:42.512Z,5
2022-09-20T16:27:42.530Z,4
2022-09-20T16:30:42.499Z,2
2022-09-20T16:33:42.515Z,4
2022-09-20T16:36:42.534Z,4
2022-09-20T16:39:42.551Z,3
2022-09-20T16:42:42.563Z,4
2022-09-20T16:45:42.543Z,4
2022-09-20T16:48:42.533Z,2
2022-09-20T16:51:42.542Z,3
2022-09-20T16:54:42.540Z,2
2022-09-20T16:57:42.551Z,3
2022-09-20T17:00:42.551Z,3
2022-09-20T17:03:42.597Z,3
2022-09-20T17:06:42.552Z,2
2022-09-20T17:09:42.574Z,2
2022-09-20T17:12:42.569Z,3
2022-09-20T17:15:42.579Z,3
2022-09-20T17:18:42.574Z,5
2022-09-20T17:21:42.589Z,4
2022-09-20T17:24:42.606Z,3
2022-09-20T17:27:42.593Z,5
2022-09-20T17:30:42.590Z,3
2022-09-20T17:33:42.588Z,4
2022-09-20T17:36:42.623Z,4
2022-09-20T17:39:42.753Z,4
2022-09-20T17:42:42.621Z,5
2022-09-20T17:45:42.623Z,5
2022-09-20T17:48:42.633Z,3
2022-09-20T17:51:42.622Z,2
2022-09-20T17:54:42.643Z,3
2022-09-20T17:57:42.644Z,2
2022-09-20T18:00:42.659Z,5
2022-09-20T18:03:42.669Z,4
2022-09-20T18:06:42.644Z,4
2022-09-20T18:09:42.719Z,7
2022-09-20T18:12:42.696Z,4
2022-09-20T18:15:42.669Z,7
2022-09-20T18:18:42.679Z,6
2022-09-20T18:21:42.742Z,5
2022-09-20T18:24:42.700Z,4
2022-09-20T18:27:42.688Z,7
2022-09-20T18:30:42.701Z,7
2022-09-20T18:33:42.713Z,5
2022-09-20T18:36:42.744Z,4
2022-09-20T18:39:42.730Z,6
2022-09-20T18:42:42.737Z,5
2022-09-20T18:45:42.760Z,6
2022-09-20T18:48:42.783Z,4
2022-09-20T18:51:42.759Z,7
2022-09-20T18:54:42.767Z,4
2022-09-20T18:57:42.756Z,7
2022-09-20T19:00:42.751Z,6
2022-09-20T19:03:42.761Z,6
2022-09-20T19:06:42.794Z,9
2022-09-20T19:09:42.814Z,10
2022-09-20T19:12:42.794Z,8
2022-09-20T19:15:42.840Z,9
2022-09-20T19:18:42.804Z,10
2022-09-20T19:21:42.799Z,11
2022-09-20T19:24:42.808Z,14
2022-09-20T19:27:42.800Z,13
2022-09-20T19:30:42.806Z,15
2022-09-20T19:33:42.821Z,7
2022-09-20T19:36:42.895Z,8
2022-09-20T19:39:42.883Z,7
2022-09-20T19:42:42.838Z,8
2022-09-20T19:45:42.851Z,9
2022-09-20T19:48:42.848Z,12
2022-09-20T19:51:42.851Z,12
2022-09-20T19:54:42.842Z,12
2022-09-20T19:57:42.872Z,12
2022-09-20T20:00:42.859Z,8
2022-09-20T20:03:43.047Z,9
2022-09-20T20:06:42.868Z,9
2022-09-20T20:09:42.922Z,10
2022-09-20T20:12:42.863Z,11
2022-09-20T20:15:42.872Z,12
2022-09-20T20:18:42.883Z,13
2022-09-20T20:21:42.886Z,15
2022-09-20T20:24:42.892Z,16
2022-09-20T20:27:42.896Z,17
2022-09-20T20:30:42.953Z,47
2022-09-20T20:33:42.897Z,47
2022-09-20T20:36:42.922Z,66
2022-09-20T20:39:42.929Z,65
2022-09-20T20:42:42.995Z,62
2022-09-20T20:45:43.010Z,55
2022-09-20T20:48:42.974Z,50
2022-09-20T20:51:43.052Z,49
2022-09-20T20:54:42.952Z,41
2022-09-20T20:57:42.966Z,46
2022-09-20T21:00:42.981Z,39
2022-09-20T21:03:43.050Z,44
2022-09-20T21:06:42.993Z,45
2022-09-20T21:09:42.986Z,48
2022-09-20T21:12:42.999Z,50
2022-09-20T21:15:43.003Z,51
2022-09-20T21:18:43.033Z,45
2022-09-20T21:21:43.021Z,46
2022-09-20T21:24:43.016Z,45
2022-09-20T21:27:43.018Z,43
2022-09-20T21:30:43.024Z,42
2022-09-20T21:33:43.033Z,38
2022-09-20T21:36:43.050Z,34
2022-09-20T21:39:43.083Z,27
2022-09-20T21:42:43.061Z,27
2022-09-20T21:45:43.079Z,26
2022-09-20T21:48:43.066Z,34
2022-09-20T21:51:43.096Z,33
2022-09-20T21:54:43.077Z,40
2022-09-20T21:57:43.083Z,42
2022-09-20T22:00:43.123Z,34
2022-09-20T22:03:43.116Z,33
2022-09-20T22:06:43.331Z,31
2022-09-20T22:09:43.172Z,32
2022-09-20T22:12:43.134Z,33
2022-09-20T22:15:43.176Z,27
2022-09-20T22:18:43.142Z,31
2022-09-20T22:21:43.158Z,26
2022-09-20T22:24:43.143Z,26
2022-09-20T22:27:43.156Z,31
2022-09-20T22:30:43.157Z,28
2022-09-20T22:33:43.165Z,27
2022-09-20T22:36:43.163Z,29
2022-09-20T22:39:43.174Z,21
2022-09-20T22:42:43.176Z,21
2022-09-20T22:45:43.202Z,18
2022-09-20T22:48:43.202Z,16
2022-09-20T22:51:43.221Z,19
2022-09-20T22:54:43.192Z,18
2022-09-20T22:57:43.207Z,17
2022-09-20T23:00:43.222Z,20
2022-09-20T23:03:43.229Z,16
2022-09-20T23:06:43.283Z,15
2022-09-20T23:09:43.230Z,16
2022-09-20T23:12:43.225Z,14
2022-09-20T23:15:43.242Z,15
2022-09-20T23:18:43.297Z,20
2022-09-20T23:21:43.250Z,24
2022-09-20T23:24:43.272Z,19
2022-09-20T23:27:43.277Z,19
2022-09-20T23:30:43.286Z,19
2022-09-20T23:33:43.289Z,18
2022-09-20T23:39:43.294Z,21
2022-09-20T23:42:43.297Z,18
2022-09-20T23:45:43.303Z,19
2022-09-20T23:48:43.314Z,16
2022-09-20T23:51:43.302Z,18
2022-09-20T23:54:43.326Z,18
2022-09-20T23:57:43.337Z,20
